Nearby METAR Reports

 

KSFB - Sanford/Orlando, Florida, USA
Distance from station: E 8mi, 12km
Updated: Wed 07/18/18 8:53pm EDT
Clear
Clear
 Wind from S
Wind: S 6 mph , 9 km/h
Temperature: 81°F , 27°C
Heat Index: 87°F , 31°C
Dew Point: 75°F , 24°C
Humidity: 84%
Barometer: 29.97 inHg , 1014.9 hPa
Clouds: Clear
Visibility: 10 miles , 16 km
2018/07/19 00:53 KSFB 190053Z 17005KT 10SM CLR 27/24 A2997 RMK AO2 SLP148 T02670244
KORL - Orlando, Florida, USA
Distance from station: S 15mi, 24km
Updated: Wed 07/18/18 8:53pm EDT
Clear
Clear
 Wind from S
Wind: S 6 mph , 9 km/h
Temperature: 81°F , 27°C
Heat Index: 87°F , 31°C
Dew Point: 75°F , 24°C
Humidity: 84%
Barometer: 29.98 inHg , 1015.2 hPa
Clouds: Clear
Visibility: 10 miles , 16 km
2018/07/19 00:53 KORL 190053Z 19005KT 10SM CLR 27/24 A2998 RMK AO2 SLP153 T02670244
 
KDED - Deland, Florida, USA
Distance from station: N 21mi, 34km
Updated: Wed 07/18/18 9:35pm EDT
Clear
Clear
 Wind from SSW
Wind: SSW 5 mph , 7 km/h
Temperature: 79°F , 26°C
Dew Point: 75°F , 24°C
Humidity: 89%
Barometer: 29.97 inHg , 1014.9 hPa
Clouds: Clear
Visibility: 10 miles , 16 km
2018/07/19 01:35 KDED 190135Z AUTO 20004KT 10SM CLR 26/24 A2997 RMK AO2
KMCO - Orlando, Florida, USA
Distance from station: S 24mi, 39km
Updated: Wed 07/18/18 8:53pm EDT
Mostly cloudy
Mostly cloudy
 Wind from calm
Wind: Calm
Temperature: 79°F , 26°C
Dew Point: 75°F , 24°C
Humidity: 89%
Barometer: 29.98 inHg , 1015.2 hPa
Clouds: Mostly cloudy
Visibility: 10 miles , 16 km
Cloud details: Few Clouds 7000 ft
Partly cloudy 18000 ft
Mostly cloudy 25000 ft
2018/07/19 00:53 KMCO 190053Z 00000KT 10SM FEW070 SCT180 BKN250 26/24 A2998 RMK AO2 SLP151 T02560244
 
KLEE - Leesburg, Florida, USA
Distance from station: W 29mi, 47km
Updated: Wed 07/18/18 8:53pm EDT
Clear
Clear
 Wind from S
Wind: S 8 mph , 13 km/h
Temperature: 79°F , 26°C
Dew Point: 77°F , 25°C
Humidity: 94%
Barometer: 29.97 inHg , 1014.9 hPa
Clouds: Clear
Visibility: 10 miles , 16 km
2018/07/19 00:53 KLEE 190053Z AUTO 19007KT 10SM CLR 26/25 A2997 RMK AO2 SLP149 T02610250
KEVB - New Smyrna Beach, Florida, USA
Distance from station: NE 31mi, 49km
Updated: Wed 07/18/18 9:48pm EDT
Clear
Clear
 Wind from calm
Wind: Calm
Temperature: 77°F , 25°C
Dew Point: 73°F , 23°C
Humidity: 89%
Barometer: 29.98 inHg , 1015.2 hPa
Clouds: Clear
Visibility: 10 miles , 16 km
2018/07/19 01:48 KEVB 190148Z 00000KT 10SM SKC 25/23 A2998 RMK LAST
 
KDAB - Daytona Beach, Florida, USA
Distance from station: NNE 33mi, 53km
Updated: Wed 07/18/18 8:53pm EDT
Mostly cloudy
Mostly cloudy
 Wind from S
Wind: S 6 mph , 9 km/h
Temperature: 77°F , 25°C
Dew Point: 75°F , 24°C
Humidity: 94%
Barometer: 29.96 inHg , 1014.6 hPa
Clouds: Mostly cloudy
Visibility: 10 miles , 16 km
Cloud details: Few Clouds 6000 ft
Partly cloudy 12000 ft
Mostly cloudy 15000 ft
2018/07/19 00:53 KDAB 190053Z 19005KT 10SM FEW060 SCT120 BKN150 25/24 A2996 RMK SLP145 T02500244
KISM - Kissimmee/Orland, Florida, USA
Distance from station: S 34mi, 55km
Updated: Wed 07/18/18 8:56pm EDT
Clear
Clear
 Wind from calm
Wind: Calm
Temperature: 79°F , 26°C
Dew Point: 75°F , 24°C
Humidity: 89%
Barometer: 29.99 inHg , 1015.6 hPa
Clouds: Clear
Visibility: 10 miles , 16 km
2018/07/19 00:56 KISM 190056Z 00000KT 10SM CLR 26/24 A2999
 
KTIX - Titusville, Florida, USA
Distance from station: ESE 38mi, 61km
Updated: Wed 07/18/18 8:47pm EDT
Partly cloudy
Partly cloudy
 Wind from S
Wind: S 5 mph , 7 km/h
Temperature: 81°F , 27°C
Heat Index: 89°F , 32°C
Dew Point: 79°F , 26°C
Humidity: 94%
Barometer: 29.99 inHg , 1015.6 hPa
Clouds: Partly cloudy
Visibility: 7 miles , 11 km
Cloud details: Partly cloudy 12000 ft
2018/07/19 00:47 KTIX 190047Z 18004KT 7SM SCT120 27/26 A2999 RMK LAST
KOMN - Ormond Beach Vor, Florida, USA
Distance from station: NNE 39mi, 63km
Updated: Wed 07/18/18 6:47pm EDT
NOT Current
Partly cloudy
Partly cloudy
 Wind from calm
Wind: Calm
Temperature: 77°F , 25°C
Dew Point: 77°F , 25°C
Humidity: 100%
Barometer: 29.96 inHg , 1014.6 hPa
Clouds: Partly cloudy
Visibility: 6 miles , 10 km
Cloud details: Partly cloudy 4000 ft
2018/07/18 22:47 KOMN 182247Z 00000KT 6SM SCT040 25/25 A2996 RMK LAST
 
KTTS - Nasa Shuttle Fcl, Florida, USA
Distance from station: ESE 39mi, 63km
Updated: Wed 07/18/18 8:56pm EDT
Mostly cloudy
Mostly cloudy
 Wind from SSW
Wind: SSW 6 mph , 9 km/h
Temperature: 81°F , 27°C
Heat Index: 91°F , 33°C
Dew Point: 81°F , 27°C
Humidity: 100%
Barometer: 29.96 inHg , 1014.6 hPa
Clouds: Mostly cloudy
Visibility: 10 miles , 16 km
Cloud details: Mostly cloudy 16000 ft
2018/07/19 00:56 KTTS 190056Z AUTO 21005KT 10SM BKN160 27/27 A2996 RMK AO2 SLP150 T02650265 $
KVVG - The Villages, Florida, USA
Distance from station: WNW 40mi, 64km
Updated: Wed 02/14/18 2:10pm EST
NOT Current

 Wind from calm
Wind: Calm
Temperature: 73°F , 23°C
Dew Point: 66°F , 19°C
Humidity: 78%
Barometer: 30.29 inHg , 1025.7 hPa
Visibility: 10 miles , 16 km
2018/02/14 19:10 KVVG 141910Z AUTO 00000KT 10SM 23/19 A3029 RMK A01
 
KXMR - Cape Canaveral, Florida, USA
Distance from station: ESE 51mi, 83km
Updated: Wed 07/18/18 8:56pm EDT
Clear
Clear
 Wind from SW
Wind: SW 5 mph , 7 km/h
Temperature: 79°F , 26°C
Dew Point: 75°F , 24°C
Humidity: 89%
Barometer: 29.97 inHg , 1014.9 hPa
Clouds: Clear
Visibility: 10 miles , 16 km
2018/07/19 00:56 KXMR 190056Z AUTO 22004KT 10SM CLR 26/24 A2997 RMK AO2 SLP152 T02640236 $
KGIF - Winter Haven, Florida, USA
Distance from station: SSW 55mi, 88km
Updated: Wed 07/18/18 8:53pm EDT
Clear
Clear
 Wind from SSW
Wind: SSW 5 mph , 7 km/h
Temperature: 81°F , 27°C
Heat Index: 87°F , 31°C
Dew Point: 75°F , 24°C
Humidity: 84%
Barometer: 30.00 inHg , 1015.9 hPa
Clouds: Clear
Visibility: 10 miles , 16 km
2018/07/19 00:53 KGIF 190053Z AUTO 20004KT 10SM CLR 27/24 A3000 RMK AO2 SLP156 T02670244
 
KCOF - Patrick Afb/Coco, Florida, USA
Distance from station: SE 58mi, 94km
Updated: Wed 07/18/18 8:56pm EDT
Few Clouds
Few Clouds
 Wind from calm
Wind: Calm
Temperature: 82°F , 28°C
Heat Index: 90°F , 32°C
Dew Point: 77°F , 25°C
Humidity: 84%
Barometer: 29.98 inHg , 1015.2 hPa
Clouds: Few Clouds
Visibility: 10 miles , 16 km
Cloud details: Few Clouds 21000 ft
2018/07/19 00:56 KCOF 190056Z AUTO 00000KT 10SM FEW210 28/25 A2998 RMK AO2 SLP156 T02750249
KINF - Inverness, Florida, USA
Distance from station: W 59mi, 95km
Updated: Wed 07/18/18 9:35pm EDT
Partly cloudy
Partly cloudy
 Wind from SSE
Wind: SSE 3 mph , 6 km/h
Temperature: 79°F , 26°C
Dew Point: 79°F , 26°C
Humidity: 100%
Barometer: 29.98 inHg , 1015.2 hPa
Clouds: Partly cloudy
Visibility: 10 miles , 16 km
Cloud details: Partly cloudy 2400 ft
Partly cloudy 3000 ft
2018/07/19 01:35 KINF 190135Z AUTO 16003KT 10SM SCT024 SCT030 26/26 A2998 RMK AO2
 
KOCF - Ocala Muni, Florida, USA
Distance from station: WNW 60mi, 96km
Updated: Wed 07/18/18 8:51pm EDT
Clear
Clear
 Wind from S
Wind: S 5 mph , 7 km/h
Temperature: 81°F , 27°C
Heat Index: 87°F , 31°C
Dew Point: 75°F , 24°C
Humidity: 84%
Barometer: 29.97 inHg , 1014.9 hPa
Clouds: Clear
Visibility: 10 miles , 16 km
2018/07/19 00:51 KOCF 190051Z AUTO 18004KT 10SM CLR 27/24 A2997 RMK AO2 SLP148 T02670244 $
KZPH - Zephyrhills, Florida, USA
Distance from station: SW 61mi, 99km
Updated: Wed 07/18/18 9:55pm EDT
Clear
Clear
 Wind from calm
Wind: Calm
Temperature: 77°F , 25°C
Dew Point: 77°F , 25°C
Humidity: 100%
Barometer: 29.99 inHg , 1015.6 hPa
Clouds: Clear
Visibility: 10 miles , 16 km
2018/07/19 01:55 KZPH 190155Z AUTO 00000KT 10SM CLR 25/25 A2999 RMK AO2 T02510245
 
KMLB - Melbourne, Florida, USA
Distance from station: SE 62mi, 100km
Updated: Wed 07/18/18 8:53pm EDT
Clear
Clear
 Wind from calm
Wind: Calm
Temperature: 82°F , 28°C
Heat Index: 89°F , 32°C
Dew Point: 75°F , 24°C
Humidity: 79%
Barometer: 29.99 inHg , 1015.6 hPa
Clouds: Clear
Visibility: 9 miles , 14 km
2018/07/19 00:53 KMLB 190053Z 00000KT 9SM CLR 28/24 A2999 RMK AO2 SLP153 T02780239
KBOW - Bartow Municipal, Florida, USA
Distance from station: SSW 63mi, 102km
Updated: Wed 07/18/18 9:35pm EDT
Clear
Clear
 Wind from calm
Wind: Calm
Temperature: 77°F , 25°C
Dew Point: 77°F , 25°C
Humidity: 100%
Barometer: 29.99 inHg , 1015.6 hPa
Clouds: Clear
Visibility: 10 miles , 16 km
2018/07/19 01:35 KBOW 190135Z AUTO 00000KT 10SM CLR 25/25 A2999 RMK AO2